TimeMDT,TemperatureF,Dew PointF,Humidity,Sea Level PressureIn,VisibilityMPH,Wind Direction,Wind SpeedMPH,Gust SpeedMPH,PrecipitationIn,Events,Conditions,WindDirDegrees,DateUTC
12:15 AM,59.0,8.6,14,30.08,10.0,ENE,8.1,-,N/A,,Clear,70,2013-06-24 06:15:00
12:35 AM,57.2,8.6,14,30.08,10.0,ENE,9.2,-,N/A,,Clear,70,2013-06-24 06:35:00
12:55 AM,55.4,8.6,15,30.08,10.0,ENE,10.4,-,N/A,,Clear,70,2013-06-24 06:55:00
1:15 AM,53.6,8.6,16,30.09,10.0,Calm,Calm,-,N/A,,Clear,0,2013-06-24 07:15:00
1:35 AM,55.4,12.2,18,30.10,10.0,NW,4.6,-,N/A,,Clear,310,2013-06-24 07:35:00
1:55 AM,50.0,6.8,17,30.10,10.0,North,4.6,-,N/A,,Clear,350,2013-06-24 07:55:00
2:15 AM,53.6,8.6,16,30.11,10.0,NE,5.8,-,N/A,,Clear,50,2013-06-24 08:15:00
2:35 AM,51.8,8.6,18,30.12,10.0,ESE,4.6,-,N/A,,Clear,120,2013-06-24 08:35:00
2:55 AM,50.0,6.8,17,30.13,10.0,Calm,Calm,-,N/A,,Clear,0,2013-06-24 08:55:00
3:15 AM,51.8,10.4,19,30.13,10.0,ESE,8.1,-,N/A,,Clear,110,2013-06-24 09:15:00
3:35 AM,51.8,10.4,19,30.14,10.0,East,6.9,-,N/A,,Clear,90,2013-06-24 09:35:00
3:55 AM,51.8,8.6,18,30.14,10.0,ENE,5.8,-,N/A,,Clear,70,2013-06-24 09:55:00
4:15 AM,53.6,12.2,19,30.13,10.0,ENE,8.1,-,N/A,,Clear,60,2013-06-24 10:15:00
4:35 AM,53.6,10.4,18,30.13,10.0,ENE,6.9,-,N/A,,Clear,60,2013-06-24 10:35:00
4:55 AM,44.6,5.0,20,30.14,10.0,North,6.9,-,N/A,,Clear,350,2013-06-24 10:55:00
5:15 AM,44.6,6.8,21,30.13,10.0,North,4.6,-,N/A,,Clear,360,2013-06-24 11:15:00
5:35 AM,44.6,8.6,23,30.14,10.0,Calm,Calm,-,N/A,,Clear,0,2013-06-24 11:35:00
5:55 AM,48.2,10.4,22,30.14,10.0,North,5.8,-,N/A,,Clear,360,2013-06-24 11:55:00
6:15 AM,46.4,10.4,23,30.14,10.0,NNE,4.6,-,N/A,,Clear,20,2013-06-24 12:15:00
6:35 AM,51.8,12.2,21,30.15,10.0,NE,4.6,-,N/A,,Clear,40,2013-06-24 12:35:00
6:55 AM,51.8,12.2,21,30.15,10.0,Calm,Calm,-,N/A,,Clear,0,2013-06-24 12:55:00
7:15 AM,57.2,15.8,20,30.16,10.0,Calm,Calm,-,N/A,,Clear,0,2013-06-24 13:15:00
7:35 AM,60.8,15.8,17,30.17,10.0,Calm,Calm,-,N/A,,Clear,0,2013-06-24 13:35:00
7:55 AM,62.6,15.8,16,30.18,10.0,Calm,Calm,-,N/A,,Clear,0,2013-06-24 13:55:00
8:15 AM,66.2,17.6,15,30.18,10.0,Calm,Calm,-,N/A,,Clear,0,2013-06-24 14:15:00
8:35 AM,68.0,15.8,13,30.19,10.0,South,3.5,-,N/A,,Clear,170,2013-06-24 14:35:00
8:55 AM,69.8,15.8,13,30.19,10.0,SSW,6.9,-,N/A,,Clear,210,2013-06-24 14:55:00
9:15 AM,71.6,17.6,13,30.19,10.0,WSW,8.1,-,N/A,,Clear,240,2013-06-24 15:15:00
9:35 AM,71.6,17.6,13,30.19,10.0,WSW,6.9,-,N/A,,Clear,250,2013-06-24 15:35:00
9:55 AM,73.4,17.6,12,30.18,10.0,SW,9.2,-,N/A,,Clear,230,2013-06-24 15:55:00
10:15 AM,75.2,17.6,11,30.17,10.0,WSW,12.7,-,N/A,,Clear,240,2013-06-24 16:15:00
10:35 AM,77.0,19.4,12,30.17,10.0,West,11.5,19.6,N/A,,Clear,280,2013-06-24 16:35:00
10:55 AM,78.8,19.4,11,30.17,10.0,WSW,12.7,23.0,N/A,,Clear,250,2013-06-24 16:55:00
11:15 AM,78.8,19.4,11,30.17,10.0,SW,16.1,24.2,N/A,,Clear,220,2013-06-24 17:15:00
11:35 AM,78.8,19.4,11,30.16,10.0,WSW,18.4,25.3,N/A,,Clear,240,2013-06-24 17:35:00
11:55 AM,78.8,19.4,11,30.16,10.0,West,5.8,21.9,N/A,,Clear,260,2013-06-24 17:55:00
12:15 PM,80.6,21.2,11,30.15,10.0,SW,17.3,26.5,N/A,,Clear,230,2013-06-24 18:15:00
12:35 PM,80.6,21.2,11,30.14,10.0,SW,20.7,25.3,N/A,,Clear,220,2013-06-24 18:35:00
12:55 PM,82.4,21.2,10,30.13,10.0,West,21.9,28.8,N/A,,Clear,270,2013-06-24 18:55:00
1:15 PM,82.4,21.2,10,30.13,10.0,West,17.3,29.9,N/A,,Clear,260,2013-06-24 19:15:00
1:35 PM,82.4,21.2,10,30.12,10.0,WSW,10.4,29.9,N/A,,Clear,240,2013-06-24 19:35:00
1:55 PM,82.4,21.2,10,30.11,10.0,SW,16.1,28.8,N/A,,Clear,220,2013-06-24 19:55:00
2:15 PM,84.2,21.2,10,30.11,7.0,West,16.1,32.2,N/A,,Clear,280,2013-06-24 20:15:00
2:35 PM,84.2,23.0,11,30.10,10.0,WSW,18.4,38.0,N/A,,Clear,240,2013-06-24 20:35:00
2:55 PM,84.2,23.0,11,30.10,10.0,WSW,23.0,28.8,N/A,,Clear,240,2013-06-24 20:55:00
3:15 PM,84.2,23.0,11,30.10,10.0,West,26.5,34.5,N/A,,Clear,270,2013-06-24 21:15:00
3:35 PM,84.2,24.8,11,30.09,10.0,West,24.2,32.2,N/A,,Clear,270,2013-06-24 21:35:00
3:55 PM,86.0,24.8,11,30.09,10.0,WSW,19.6,32.2,N/A,,Clear,250,2013-06-24 21:55:00
4:15 PM,86.0,23.0,10,30.08,10.0,WSW,24.2,29.9,N/A,,Clear,250,2013-06-24 22:15:00
4:35 PM,82.4,21.2,10,30.08,10.0,West,23.0,33.4,N/A,,Clear,270,2013-06-24 22:35:00
4:55 PM,82.4,21.2,10,30.08,10.0,WNW,15.0,-,N/A,,Clear,290,2013-06-24 22:55:00
5:15 PM,84.2,23.0,11,30.07,10.0,West,24.2,32.2,N/A,,Clear,280,2013-06-24 23:15:00
5:35 PM,80.6,21.2,11,30.07,10.0,West,15.0,-,N/A,,Clear,270,2013-06-24 23:35:00
5:55 PM,82.4,21.2,10,30.07,10.0,West,20.7,32.2,N/A,,Clear,260,2013-06-24 23:55:00
6:15 PM,82.4,21.2,10,30.07,10.0,West,19.6,32.2,N/A,,Clear,260,2013-06-25 00:15:00
6:35 PM,84.2,23.0,11,30.07,10.0,West,23.0,28.8,N/A,,Clear,270,2013-06-25 00:35:00
6:55 PM,80.6,19.4,10,30.08,10.0,West,25.3,29.9,N/A,,Clear,270,2013-06-25 00:55:00
7:15 PM,80.6,21.2,11,30.07,10.0,West,20.7,24.2,N/A,,Clear,260,2013-06-25 01:15:00
7:35 PM,80.6,19.4,10,30.08,10.0,West,23.0,29.9,N/A,,Clear,270,2013-06-25 01:35:00
7:55 PM,78.8,17.6,10,30.09,10.0,West,15.0,-,N/A,,Clear,280,2013-06-25 01:55:00
8:15 PM,73.4,15.8,11,30.10,10.0,West,12.7,-,N/A,,Clear,280,2013-06-25 02:15:00
8:35 PM,71.6,15.8,12,30.11,10.0,WNW,10.4,-,N/A,,Clear,300,2013-06-25 02:35:00
8:55 PM,69.8,12.2,11,30.12,10.0,WNW,8.1,-,N/A,,Clear,300,2013-06-25 02:55:00
9:15 PM,66.2,10.4,11,30.12,10.0,NW,6.9,-,N/A,,Clear,310,2013-06-25 03:15:00
9:35 PM,64.4,8.6,11,30.13,10.0,NW,6.9,-,N/A,,Clear,320,2013-06-25 03:35:00
9:55 PM,66.2,8.6,11,30.14,10.0,NW,3.5,-,N/A,,Clear,320,2013-06-25 03:55:00
10:15 PM,64.4,8.6,11,30.15,10.0,Calm,Calm,-,N/A,,Clear,0,2013-06-25 04:15:00
10:35 PM,55.4,1.4,11,30.15,10.0,ESE,5.8,-,N/A,,Clear,120,2013-06-25 04:35:00
10:55 PM,57.2,3.2,11,30.15,10.0,East,4.6,-,N/A,,Clear,80,2013-06-25 04:55:00
11:15 PM,55.4,1.4,11,30.15,10.0,East,3.5,-,N/A,,Clear,90,2013-06-25 05:15:00
11:35 PM,62.6,3.2,9,30.15,10.0,SE,4.6,-,N/A,,Clear,130,2013-06-25 05:35:00
11:55 PM,62.6,6.8,11,30.15,10.0,ESE,9.2,-,N/A,,Clear,120,2013-06-25 05:55:00